createdAt,value
2022-08-25T00:00:51.529Z,57.65
2022-08-25T00:01:51.513Z,57.37
2022-08-25T00:02:55.299Z,57.56
2022-08-25T00:03:51.492Z,57.46
2022-08-25T00:04:53.699Z,57.17
2022-08-25T00:05:51.525Z,57.46
2022-08-25T00:06:51.456Z,57.56
2022-08-25T00:07:51.447Z,57.46
2022-08-25T00:08:51.433Z,57.53
2022-08-25T00:09:51.434Z,57.17
2022-08-25T00:11:03.123Z,57.53
2022-08-25T00:11:51.402Z,57.92
2022-08-25T00:12:51.389Z,57.62
2022-08-25T00:13:51.394Z,57.82
2022-08-25T00:14:51.365Z,58.01
2022-08-25T00:15:51.391Z,58.49
2022-08-25T00:16:51.358Z,58.01
2022-08-25T00:17:51.333Z,57.92
2022-08-25T00:18:51.320Z,58.01
2022-08-25T00:19:51.319Z,58.20
2022-08-25T00:20:51.298Z,58.01
2022-08-25T00:21:51.289Z,58.30
2022-08-25T00:22:51.299Z,58.30
2022-08-25T00:23:51.269Z,58.01
2022-08-25T00:24:51.253Z,59.45
2022-08-25T00:25:51.246Z,58.88
2022-08-25T00:26:51.232Z,59.45
2022-08-25T00:27:51.221Z,59.27
2022-08-25T00:28:51.233Z,59.17
2022-08-25T00:29:51.200Z,59.65
2022-08-25T00:30:51.223Z,59.27
2022-08-25T00:31:51.176Z,58.88
2022-08-25T00:32:55.268Z,59.36
2022-08-25T00:33:51.153Z,59.36
2022-08-25T00:34:51.143Z,58.88
2022-08-25T00:35:51.132Z,59.17
2022-08-25T00:36:51.133Z,60.03
2022-08-25T00:37:51.107Z,59.45
2022-08-25T00:38:51.094Z,59.65
2022-08-25T00:39:51.198Z,60.03
2022-08-25T00:40:51.073Z,59.94
2022-08-25T00:41:51.063Z,59.55
2022-08-25T00:42:51.058Z,59.27
2022-08-25T00:43:51.038Z,59.65
2022-08-25T00:44:51.033Z,60.52
2022-08-25T00:45:51.038Z,59.94
2022-08-25T00:46:51.011Z,60.13
2022-08-25T00:47:52.522Z,59.84
2022-08-25T00:48:50.980Z,60.42
2022-08-25T00:49:50.970Z,60.61
2022-08-25T00:50:50.958Z,60.23
2022-08-25T00:51:50.949Z,60.13
2022-08-25T00:52:50.936Z,60.61
2022-08-25T00:53:50.924Z,60.32
2022-08-25T00:54:50.940Z,60.32
2022-08-25T00:55:50.914Z,60.61
2022-08-25T00:56:50.889Z,60.80
2022-08-25T00:57:50.877Z,61.00
2022-08-25T00:58:50.865Z,60.71
2022-08-25T00:59:50.858Z,60.61
2022-08-25T01:00:50.845Z,60.71
2022-08-25T01:01:50.928Z,60.90
2022-08-25T01:02:50.902Z,61.19
2022-08-25T01:03:50.842Z,61.00
2022-08-25T01:04:50.815Z,61.25
2022-08-25T01:05:50.790Z,61.25
2022-08-25T01:06:50.776Z,61.25
2022-08-25T01:07:50.763Z,61.07
2022-08-25T01:08:50.751Z,61.55
2022-08-25T01:09:50.743Z,61.55
2022-08-25T01:10:50.728Z,60.97
2022-08-25T01:11:50.717Z,61.93
2022-08-25T01:12:50.720Z,61.74
2022-08-25T01:13:50.692Z,61.65
2022-08-25T01:14:50.701Z,61.83
2022-08-25T01:15:50.728Z,61.55
2022-08-25T01:16:51.159Z,61.93
2022-08-25T01:17:50.647Z,61.45
2022-08-25T01:18:50.638Z,61.35
2022-08-25T01:19:50.624Z,61.93
2022-08-25T01:20:50.622Z,62.12
2022-08-25T01:21:50.602Z,61.65
2022-08-25T01:22:55.084Z,61.93
2022-08-25T01:23:50.577Z,61.93
2022-08-25T01:24:50.563Z,61.65
2022-08-25T01:25:50.557Z,62.03
2022-08-25T01:26:50.544Z,61.65
2022-08-25T01:27:50.538Z,61.83
2022-08-25T01:28:50.518Z,61.80
2022-08-25T01:29:50.539Z,61.61
2022-08-25T01:30:50.578Z,62.09
2022-08-25T01:31:50.486Z,62.19
2022-08-25T01:32:50.491Z,62.09
2022-08-25T01:33:50.463Z,62.09
2022-08-25T01:34:51.985Z,62.29
2022-08-25T01:35:50.452Z,62.09
2022-08-25T01:36:50.427Z,62.57
2022-08-25T01:37:50.429Z,62.19
2022-08-25T01:38:50.405Z,62.29
2022-08-25T01:39:50.480Z,62.67
2022-08-25T01:40:50.392Z,62.19
2022-08-25T01:41:51.349Z,62.48
2022-08-25T01:42:50.357Z,62.29
2022-08-25T01:43:50.346Z,62.77
2022-08-25T01:44:50.344Z,63.25
2022-08-25T01:45:50.376Z,63.06
2022-08-25T01:46:50.309Z,62.87
2022-08-25T01:47:50.300Z,62.77
2022-08-25T01:48:50.295Z,62.77
2022-08-25T01:49:50.273Z,62.87
2022-08-25T01:50:50.279Z,62.96
2022-08-25T01:51:50.263Z,62.93
2022-08-25T01:52:50.257Z,63.31
2022-08-25T01:53:50.240Z,63.31
2022-08-25T01:54:50.225Z,63.31
2022-08-25T01:55:50.206Z,63.06
2022-08-25T01:56:50.211Z,63.22
2022-08-25T01:57:50.180Z,63.22
2022-08-25T01:58:50.166Z,63.12
2022-08-25T01:59:50.178Z,63.41
2022-08-25T02:00:50.144Z,63.22
2022-08-25T02:01:50.210Z,63.41
2022-08-25T02:02:52.336Z,63.41
2022-08-25T02:03:50.110Z,63.51
2022-08-25T02:04:50.690Z,63.41
2022-08-25T02:05:50.105Z,63.22
2022-08-25T02:06:50.072Z,63.51
2022-08-25T02:07:50.061Z,63.41
2022-08-25T02:08:50.048Z,63.02
2022-08-25T02:09:50.036Z,63.28
2022-08-25T02:10:50.043Z,63.09
2022-08-25T02:11:50.016Z,63.28
2022-08-25T02:12:50.001Z,63.28
2022-08-25T02:13:50.009Z,63.67
2022-08-25T02:14:50.016Z,63.67
2022-08-25T02:15:49.974Z,63.76
2022-08-25T02:16:50.009Z,64.05
2022-08-25T02:17:49.942Z,63.67
2022-08-25T02:18:49.939Z,64.22
2022-08-25T02:19:49.918Z,64.50
2022-08-25T02:20:49.911Z,64.22
2022-08-25T02:21:49.894Z,64.40
2022-08-25T02:22:56.634Z,64.40
2022-08-25T02:23:49.870Z,64.89
2022-08-25T02:24:49.877Z,64.60
2022-08-25T02:25:49.847Z,65.17
2022-08-25T02:26:49.852Z,65.23
2022-08-25T02:27:49.823Z,65.66
2022-08-25T02:28:49.818Z,65.43
2022-08-25T02:29:49.798Z,65.91
2022-08-25T02:30:49.825Z,66.00
2022-08-25T02:31:49.787Z,66.30
2022-08-25T02:32:49.776Z,66.20
2022-08-25T02:33:49.751Z,66.58
2022-08-25T02:34:49.740Z,66.49
2022-08-25T02:35:49.745Z,67.03
2022-08-25T02:36:49.713Z,67.13
2022-08-25T02:37:49.739Z,67.32
2022-08-25T02:38:49.695Z,67.32
2022-08-25T02:39:49.714Z,67.03
2022-08-25T02:40:49.695Z,67.70
2022-08-25T02:41:49.651Z,67.22
2022-08-25T02:42:49.652Z,67.80
2022-08-25T02:43:49.627Z,67.61
2022-08-25T02:44:49.615Z,67.90
2022-08-25T02:45:49.631Z,68.18
2022-08-25T02:46:49.591Z,68.37
2022-08-25T02:47:49.580Z,67.96
2022-08-25T02:48:49.590Z,68.44
2022-08-25T02:49:49.553Z,69.11
2022-08-25T02:50:49.545Z,68.73
2022-08-25T02:51:49.530Z,68.44
2022-08-25T02:52:49.515Z,68.73
2022-08-25T02:53:49.504Z,69.30
2022-08-25T02:54:49.518Z,69.40
2022-08-25T02:55:49.480Z,69.20
2022-08-25T02:56:49.465Z,69.40
2022-08-25T02:57:49.462Z,69.40
2022-08-25T02:58:49.463Z,70.13
2022-08-25T02:59:49.430Z,69.65
2022-08-25T03:00:49.448Z,69.84
2022-08-25T03:01:49.421Z,70.32
2022-08-25T03:02:49.393Z,70.42
2022-08-25T03:03:49.442Z,70.70
2022-08-25T03:04:49.439Z,70.42
2022-08-25T03:05:49.350Z,71.09
2022-08-25T03:06:49.340Z,70.70
2022-08-25T03:07:49.327Z,70.99
2022-08-25T03:08:49.314Z,71.09
2022-08-25T03:09:49.300Z,71.28
2022-08-25T03:10:49.289Z,71.28
2022-08-25T03:11:49.284Z,71.47
2022-08-25T03:12:49.264Z,71.86
2022-08-25T03:13:49.259Z,71.82
2022-08-25T03:14:49.240Z,71.92
2022-08-25T03:15:49.300Z,72.30
2022-08-25T03:16:49.272Z,72.20
2022-08-25T03:17:49.202Z,72.01
2022-08-25T03:18:49.187Z,72.49
2022-08-25T03:19:49.175Z,72.68
2022-08-25T03:20:49.162Z,72.30
2022-08-25T03:21:49.147Z,73.07
2022-08-25T03:22:49.137Z,73.07
2022-08-25T03:23:49.125Z,73.26
2022-08-25T03:24:49.112Z,73.55
2022-08-25T03:25:49.109Z,73.26
2022-08-25T03:26:49.084Z,73.16
2022-08-25T03:27:49.075Z,73.55
2022-08-25T03:28:49.063Z,73.90
2022-08-25T03:29:49.046Z,73.70
2022-08-25T03:30:49.033Z,73.41
2022-08-25T03:31:49.105Z,74.08
2022-08-25T03:32:49.016Z,74.27
2022-08-25T03:33:48.995Z,74.27
2022-08-25T03:34:48.983Z,74.47
2022-08-25T03:35:48.969Z,74.57
2022-08-25T03:36:48.956Z,75.04
2022-08-25T03:37:48.942Z,74.95
2022-08-25T03:38:48.930Z,74.85
2022-08-25T03:39:48.957Z,75.14
2022-08-25T03:40:48.901Z,75.33
2022-08-25T03:41:48.889Z,75.14
2022-08-25T03:42:48.877Z,75.90
2022-08-25T03:43:48.956Z,75.43
2022-08-25T03:44:48.850Z,75.04
2022-08-25T03:45:48.888Z,75.71
2022-08-25T03:46:48.823Z,75.71
2022-08-25T03:47:48.814Z,75.90
2022-08-25T03:48:48.796Z,76.48
2022-08-25T03:49:49.132Z,76.29
2022-08-25T03:50:51.593Z,76.64
2022-08-25T03:51:48.758Z,76.73
2022-08-25T03:52:48.745Z,77.21
2022-08-25T03:53:48.730Z,77.31
2022-08-25T03:54:48.720Z,77.78
2022-08-25T03:55:48.704Z,77.88
2022-08-25T03:56:48.692Z,77.88
2022-08-25T03:57:48.675Z,77.97
2022-08-25T03:58:48.670Z,78.17
2022-08-25T03:59:48.651Z,77.97
2022-08-25T04:00:48.694Z,78.45
2022-08-25T04:01:54.014Z,78.55
2022-08-25T04:02:48.692Z,78.45
2022-08-25T04:03:48.597Z,78.55
2022-08-25T04:04:48.587Z,78.84
2022-08-25T04:05:48.575Z,79.32
2022-08-25T04:06:48.560Z,79.22
2022-08-25T04:07:48.545Z,79.32
2022-08-25T04:08:48.536Z,79.70
2022-08-25T04:09:48.522Z,79.70
2022-08-25T04:10:48.508Z,79.99
2022-08-25T04:11:51.930Z,79.75
2022-08-25T04:12:48.481Z,80.27
2022-08-25T04:13:48.469Z,79.99
2022-08-25T04:14:48.453Z,80.47
2022-08-25T04:15:48.438Z,80.33
2022-08-25T04:16:48.583Z,80.33
2022-08-25T04:17:48.411Z,80.43
2022-08-25T04:18:48.399Z,80.04
2022-08-25T04:19:48.385Z,80.24
2022-08-25T04:20:48.370Z,80.90
2022-08-25T04:21:48.356Z,80.90
2022-08-25T04:22:48.343Z,80.90
2022-08-25T04:23:48.332Z,80.90
2022-08-25T04:24:48.317Z,81.29
2022-08-25T04:25:48.307Z,81.29
2022-08-25T04:26:48.290Z,81.38
2022-08-25T04:27:48.281Z,81.57
2022-08-25T04:28:48.264Z,81.57
2022-08-25T04:29:48.248Z,81.67
2022-08-25T04:30:51.871Z,81.96
2022-08-25T04:31:48.831Z,82.06
2022-08-25T04:32:48.209Z,81.96
2022-08-25T04:33:48.201Z,82.43
2022-08-25T04:34:48.182Z,83.11
2022-08-25T04:35:48.169Z,82.92
2022-08-25T04:36:51.186Z,82.53
2022-08-25T04:37:48.141Z,83.06
2022-08-25T04:38:48.230Z,82.87
2022-08-25T04:39:48.141Z,83.06
2022-08-25T04:40:48.106Z,83.36
2022-08-25T04:41:48.095Z,83.45
2022-08-25T04:42:48.267Z,83.83
2022-08-25T04:43:48.057Z,84.02
2022-08-25T04:44:48.046Z,84.22
2022-08-25T04:45:48.098Z,84.22
2022-08-25T04:46:48.021Z,84.31
2022-08-25T04:47:50.662Z,84.98
2022-08-25T04:48:47.990Z,84.79
2022-08-25T04:49:47.980Z,84.98
2022-08-25T04:50:47.963Z,84.98
2022-08-25T04:51:47.985Z,85.17
2022-08-25T04:52:47.936Z,85.08
2022-08-25T04:53:47.921Z,85.55
2022-08-25T04:54:47.910Z,85.36
2022-08-25T04:55:47.896Z,85.55
2022-08-25T04:56:47.880Z,85.46
2022-08-25T04:57:47.867Z,85.94
2022-08-25T04:58:47.866Z,85.94
2022-08-25T04:59:47.840Z,86.13
2022-08-25T05:00:47.850Z,86.41
2022-08-25T05:01:47.812Z,86.32
2022-08-25T05:02:47.800Z,86.51
2022-08-25T05:03:47.825Z,86.32
2022-08-25T05:04:47.804Z,86.32
2022-08-25T05:05:47.756Z,86.32
2022-08-25T05:06:47.755Z,86.70
2022-08-25T05:07:47.732Z,86.61
2022-08-25T05:08:47.715Z,86.51
2022-08-25T05:09:47.700Z,86.51
2022-08-25T05:10:47.690Z,86.70
2022-08-25T05:11:47.671Z,86.51
2022-08-25T05:12:47.660Z,86.61
2022-08-25T05:13:51.442Z,86.99
2022-08-25T05:14:47.635Z,86.90
2022-08-25T05:15:47.618Z,87.37
2022-08-25T05:16:47.626Z,86.70
2022-08-25T05:17:47.589Z,86.94
2022-08-25T05:18:47.585Z,86.94
2022-08-25T05:19:47.561Z,87.32
2022-08-25T05:20:47.548Z,87.61
2022-08-25T05:21:47.533Z,87.56
2022-08-25T05:22:47.521Z,88.28
2022-08-25T05:23:47.507Z,88.09
2022-08-25T05:24:47.496Z,87.99
2022-08-25T05:25:47.479Z,88.18
2022-08-25T05:26:47.471Z,88.18
2022-08-25T05:27:47.455Z,87.99
2022-08-25T05:28:47.744Z,88.18
2022-08-25T05:29:47.423Z,88.18
2022-08-25T05:30:49.834Z,88.28
2022-08-25T05:31:50.668Z,88.66
2022-08-25T05:32:47.385Z,88.76
2022-08-25T05:33:47.377Z,88.37
2022-08-25T05:34:48.911Z,88.09
2022-08-25T05:35:47.342Z,88.03
2022-08-25T05:36:47.331Z,88.13
2022-08-25T05:37:47.317Z,88.42
2022-08-25T05:38:47.305Z,88.32
2022-08-25T05:39:47.328Z,87.94
2022-08-25T05:40:47.277Z,88.23
2022-08-25T05:41:47.278Z,87.74
2022-08-25T05:42:47.250Z,87.74
2022-08-25T05:43:47.233Z,87.74
2022-08-25T05:44:47.220Z,87.79
2022-08-25T05:45:47.243Z,87.12
2022-08-25T05:46:47.197Z,87.50
2022-08-25T05:47:47.179Z,87.02
2022-08-25T05:48:47.173Z,87.60
2022-08-25T05:49:47.153Z,86.93
2022-08-25T05:53:34.607Z,86.88
2022-08-25T05:54:34.575Z,86.21
2022-08-25T05:56:40.064Z,85.77
2022-08-25T05:57:40.044Z,85.77
2022-08-25T05:59:45.551Z,85.71
2022-08-25T06:00:45.528Z,85.57
2022-08-25T06:02:50.989Z,84.55
2022-08-25T06:03:51.052Z,84.45
2022-08-25T06:05:56.407Z,84.11
2022-08-25T06:06:56.413Z,84.11
2022-08-25T06:09:02.032Z,83.39
2022-08-25T06:10:01.841Z,83.48
2022-08-25T06:12:07.319Z,82.46
2022-08-25T06:13:07.286Z,82.65
2022-08-25T06:14:07.272Z,82.17
2022-08-25T06:15:07.269Z,81.79
2022-08-25T06:16:07.327Z,81.35
2022-08-25T06:17:07.233Z,81.25
2022-08-25T06:18:07.292Z,80.68
2022-08-25T06:19:07.215Z,80.48
2022-08-25T06:20:07.201Z,80.29
2022-08-25T06:21:07.185Z,80.71
2022-08-25T06:22:07.179Z,79.94
2022-08-25T06:23:07.162Z,79.27
2022-08-25T06:24:07.160Z,78.98
2022-08-25T06:25:07.135Z,78.69
2022-08-25T06:26:07.131Z,78.69
2022-08-25T06:27:07.124Z,78.50
2022-08-25T06:28:07.247Z,77.86
2022-08-25T06:29:07.088Z,77.96
2022-08-25T06:30:07.806Z,77.76
2022-08-25T06:31:07.115Z,77.09
2022-08-25T06:32:07.098Z,77.09
2022-08-25T06:33:07.041Z,76.71
2022-08-25T06:34:07.031Z,76.45
2022-08-25T06:35:07.020Z,75.88
2022-08-25T06:36:07.012Z,75.78
2022-08-25T06:37:06.997Z,75.78
2022-08-25T06:38:07.192Z,75.20
2022-08-25T06:39:06.971Z,75.49
2022-08-25T06:40:07.052Z,75.10
2022-08-25T06:41:06.951Z,74.37
2022-08-25T06:42:06.942Z,74.47
2022-08-25T06:43:06.933Z,73.79
2022-08-25T06:44:06.934Z,73.69
2022-08-25T06:45:06.903Z,73.79
2022-08-25T06:46:06.916Z,73.31
2022-08-25T06:47:06.930Z,73.06
2022-08-25T06:48:06.992Z,72.92
2022-08-25T06:49:06.909Z,72.77
2022-08-25T06:50:06.849Z,72.58
2022-08-25T06:51:06.853Z,72.48
2022-08-25T06:52:06.841Z,72.09
2022-08-25T06:53:06.815Z,71.90
2022-08-25T06:54:06.805Z,71.42
2022-08-25T06:55:06.837Z,71.42
2022-08-25T06:56:06.935Z,71.70
2022-08-25T06:57:06.786Z,71.42
2022-08-25T06:58:06.912Z,71.06
2022-08-25T06:59:06.756Z,71.06
2022-08-25T07:00:06.745Z,70.39
2022-08-25T07:01:06.794Z,70.39
2022-08-25T07:02:06.788Z,70.39
2022-08-25T07:03:07.093Z,70.29
2022-08-25T07:04:11.744Z,69.65
2022-08-25T07:05:08.246Z,69.94
2022-08-25T07:06:06.680Z,69.46
2022-08-25T07:07:06.667Z,69.56
2022-08-25T07:08:06.886Z,69.07
2022-08-25T07:09:06.644Z,69.26
2022-08-25T07:10:06.636Z,68.68
2022-08-25T07:11:06.627Z,69.17
2022-08-25T07:12:06.620Z,68.33
2022-08-25T07:13:06.607Z,68.52
2022-08-25T07:14:06.599Z,68.43
2022-08-25T07:15:21.009Z,68.14
2022-08-25T07:16:06.612Z,68.04
2022-08-25T07:17:12.108Z,67.88
2022-08-25T07:18:06.779Z,67.11
2022-08-25T07:19:06.547Z,66.82
2022-08-25T07:20:06.586Z,66.72
2022-08-25T07:21:08.912Z,66.53
2022-08-25T07:22:06.520Z,66.56
2022-08-25T07:23:06.642Z,66.05
2022-08-25T07:24:06.497Z,65.69
2022-08-25T07:25:06.485Z,65.59
2022-08-25T07:26:15.689Z,65.59
2022-08-25T07:27:06.467Z,64.92
2022-08-25T07:28:06.461Z,65.20
2022-08-25T07:29:06.450Z,65.11
2022-08-25T07:30:06.443Z,65.05
2022-08-25T07:31:06.444Z,64.56
2022-08-25T07:32:06.423Z,64.66
2022-08-25T07:33:06.879Z,64.17
2022-08-25T07:34:06.404Z,63.98
2022-08-25T07:35:06.392Z,63.49
2022-08-25T07:36:06.385Z,63.59
2022-08-25T07:37:06.374Z,63.89
2022-08-25T07:38:06.366Z,63.69
2022-08-25T07:39:06.357Z,63.69
2022-08-25T07:40:06.409Z,63.40
2022-08-25T07:41:06.339Z,63.43
2022-08-25T07:42:12.166Z,63.04
2022-08-25T07:43:06.434Z,62.95
2022-08-25T07:44:06.315Z,62.46
2022-08-25T07:45:07.328Z,62.17
2022-08-25T07:46:06.335Z,62.07
2022-08-25T07:47:06.287Z,61.59
2022-08-25T07:48:06.282Z,61.91
2022-08-25T07:49:12.624Z,61.62
2022-08-25T07:50:06.264Z,61.62
2022-08-25T07:51:07.545Z,61.72
2022-08-25T07:52:06.923Z,61.52
2022-08-25T07:53:06.443Z,61.43
2022-08-25T07:54:06.232Z,60.94
2022-08-25T07:55:08.263Z,60.85
2022-08-25T07:56:06.218Z,60.78
2022-08-25T07:57:06.208Z,60.68
2022-08-25T07:58:06.382Z,60.88
2022-08-25T07:59:06.203Z,60.88
2022-08-25T08:00:06.183Z,60.39
2022-08-25T08:01:06.171Z,60.49
2022-08-25T08:02:06.207Z,60.23
2022-08-25T08:03:06.201Z,59.55
2022-08-25T08:04:06.201Z,60.13
2022-08-25T08:05:06.143Z,59.67
2022-08-25T08:06:06.139Z,59.48
2022-08-25T08:07:06.133Z,59.38
2022-08-25T08:08:06.214Z,59.31
2022-08-25T08:09:06.116Z,58.54
2022-08-25T08:10:33.242Z,58.34
2022-08-25T08:11:06.108Z,58.05
2022-08-25T08:12:06.097Z,58.28
2022-08-25T08:13:07.562Z,58.28
2022-08-25T08:14:06.087Z,57.98
2022-08-25T08:15:10.421Z,57.11
2022-08-25T08:16:06.102Z,57.14
2022-08-25T08:17:06.065Z,56.95
2022-08-25T08:18:07.210Z,56.95
2022-08-25T08:19:06.058Z,56.59
2022-08-25T08:20:06.049Z,56.29
2022-08-25T08:21:06.042Z,55.80
2022-08-25T08:22:06.037Z,56.00
2022-08-25T08:23:06.223Z,55.93
2022-08-25T08:24:14.836Z,55.25
2022-08-25T08:25:06.020Z,54.76
2022-08-25T08:26:06.016Z,54.18
2022-08-25T08:27:06.013Z,54.01
2022-08-25T08:28:07.236Z,53.81
2022-08-25T08:29:06.002Z,54.23
2022-08-25T08:30:06.002Z,53.65
2022-08-25T08:31:06.037Z,52.97
2022-08-25T08:32:05.987Z,52.60
2022-08-25T08:33:11.380Z,52.40
2022-08-25T08:34:05.980Z,52.70
2022-08-25T08:35:05.973Z,51.95
2022-08-25T08:36:05.972Z,51.85
2022-08-25T08:37:05.964Z,51.26
2022-08-25T08:38:13.536Z,51.17
2022-08-25T08:39:05.957Z,50.99
2022-08-25T08:40:06.059Z,50.21
2022-08-25T08:41:05.947Z,50.12
2022-08-25T08:42:12.701Z,50.51
2022-08-25T08:43:06.209Z,49.93
2022-08-25T08:45:05.933Z,49.17
2022-08-25T08:46:05.978Z,48.78
2022-08-25T08:47:08.995Z,48.88
2022-08-25T08:48:06.683Z,47.90
2022-08-25T08:49:05.916Z,47.92
2022-08-25T08:50:05.917Z,47.92
2022-08-25T08:51:06.791Z,46.95
2022-08-25T08:52:05.911Z,46.95
2022-08-25T08:53:05.957Z,47.07
2022-08-25T08:54:05.902Z,46.58
2022-08-25T08:55:06.567Z,46.89
2022-08-25T08:56:05.899Z,46.89
2022-08-25T08:57:05.892Z,46.53
2022-08-25T08:58:06.059Z,46.43
2022-08-25T08:59:06.183Z,45.37
2022-08-25T09:00:05.884Z,45.37
2022-08-25T09:01:05.882Z,43.81
2022-08-25T09:02:05.963Z,43.32
2022-08-25T09:03:06.300Z,43.13
2022-08-25T09:04:05.875Z,42.74
2022-08-25T09:05:05.869Z,42.93
2022-08-25T09:06:06.791Z,43.03
2022-08-25T09:07:05.869Z,42.74
2022-08-25T09:08:06.113Z,42.74
2022-08-25T09:09:06.934Z,42.64
2022-08-25T09:10:05.856Z,42.54
2022-08-25T09:11:05.853Z,42.46
2022-08-25T09:12:05.852Z,42.36
2022-08-25T09:13:11.296Z,42.38
2022-08-25T09:14:05.848Z,41.80
2022-08-25T09:15:12.541Z,40.82
2022-08-25T09:16:05.903Z,41.03
2022-08-25T09:17:05.836Z,40.16
2022-08-25T09:18:05.836Z,40.35
2022-08-25T09:19:05.833Z,40.06
2022-08-25T09:20:05.831Z,39.47
2022-08-25T09:21:05.828Z,40.35
2022-08-25T09:22:36.409Z,40.16
2022-08-25T09:23:05.822Z,40.35
2022-08-25T09:24:05.823Z,39.37
2022-08-25T09:25:08.623Z,39.56
2022-08-25T09:26:05.820Z,39.66
2022-08-25T09:27:05.813Z,40.25
2022-08-25T09:28:05.982Z,40.35
2022-08-25T09:29:06.088Z,40.45
2022-08-25T09:30:05.808Z,39.49
2022-08-25T09:31:05.860Z,39.22
2022-08-25T09:32:05.808Z,38.12
2022-08-25T09:33:05.797Z,38.04
2022-08-25T09:34:05.797Z,38.13
2022-08-25T09:35:05.795Z,37.35
2022-08-25T09:36:06.302Z,37.74
2022-08-25T09:37:05.790Z,37.94
2022-08-25T09:38:05.978Z,37.05
2022-08-25T09:39:05.781Z,37.74
2022-08-25T09:40:05.827Z,38.15
2022-08-25T09:41:05.782Z,37.66
2022-08-25T09:42:05.777Z,36.68
2022-08-25T09:43:05.771Z,36.40
2022-08-25T09:44:05.771Z,36.01
2022-08-25T09:45:05.768Z,36.80
2022-08-25T09:46:05.808Z,36.70
2022-08-25T09:47:05.763Z,36.21
2022-08-25T09:48:05.871Z,36.68
2022-08-25T09:49:05.760Z,36.99
2022-08-25T09:50:05.793Z,37.38
2022-08-25T09:51:05.760Z,36.32
2022-08-25T09:52:05.754Z,36.22
2022-08-25T09:53:15.194Z,35.85
2022-08-25T09:54:10.526Z,36.07
2022-08-25T09:55:05.747Z,35.88
2022-08-25T09:56:05.746Z,35.39
2022-08-25T09:57:08.547Z,35.02
2022-08-25T09:58:09.414Z,34.92
2022-08-25T09:59:05.741Z,34.63
2022-08-25T10:00:05.739Z,33.94
2022-08-25T10:01:05.774Z,33.94
2022-08-25T10:02:05.851Z,33.34
2022-08-25T10:03:06.460Z,32.46
2022-08-25T10:04:05.795Z,32.46
2022-08-25T10:05:05.757Z,32.95
2022-08-25T10:06:05.728Z,33.05
2022-08-25T10:07:05.729Z,32.65
2022-08-25T10:08:05.728Z,32.65
2022-08-25T10:09:05.823Z,32.76
2022-08-25T10:10:05.723Z,32.38
2022-08-25T10:11:06.486Z,31.98
2022-08-25T10:12:05.719Z,31.57
2022-08-25T10:13:06.356Z,31.48
2022-08-25T10:14:05.716Z,31.38
2022-08-25T10:15:05.717Z,31.87
2022-08-25T10:16:05.756Z,32.08
2022-08-25T10:17:05.710Z,32.39
2022-08-25T10:18:05.710Z,32.29
2022-08-25T10:19:05.712Z,31.92
2022-08-25T10:20:05.711Z,31.42
2022-08-25T10:21:07.497Z,31.73
2022-08-25T10:22:05.714Z,31.63
2022-08-25T10:23:05.867Z,31.56
2022-08-25T10:24:05.714Z,31.35
2022-08-25T10:25:05.703Z,30.69
2022-08-25T10:26:05.726Z,30.20
2022-08-25T10:27:05.706Z,29.33
2022-08-25T10:28:05.856Z,28.64
2022-08-25T10:29:05.703Z,28.24
2022-08-25T10:30:05.701Z,28.92
2022-08-25T10:31:05.729Z,29.61
2022-08-25T10:32:10.238Z,29.41
2022-08-25T10:33:06.036Z,29.91
2022-08-25T10:34:05.697Z,30.20
2022-08-25T10:35:05.699Z,30.10
2022-08-25T10:36:05.701Z,29.32
2022-08-25T10:37:05.699Z,29.33
2022-08-25T10:38:05.700Z,29.43
2022-08-25T10:39:05.698Z,29.62
2022-08-25T10:40:05.794Z,29.62
2022-08-25T10:41:05.696Z,29.34
2022-08-25T10:42:05.695Z,29.34
2022-08-25T10:43:05.800Z,29.34
2022-08-25T10:44:05.704Z,29.46
2022-08-25T10:45:05.697Z,28.78
2022-08-25T10:46:05.754Z,28.58
2022-08-25T10:47:05.713Z,28.49
2022-08-25T10:48:05.698Z,27.72
2022-08-25T10:49:05.696Z,27.63
2022-08-25T10:50:05.696Z,27.64
2022-08-25T10:51:05.701Z,26.26
2022-08-25T10:52:05.699Z,26.55
2022-08-25T10:53:05.805Z,26.37
2022-08-25T10:54:05.700Z,26.75
2022-08-25T10:55:05.701Z,26.95
2022-08-25T10:56:07.409Z,26.86
2022-08-25T10:57:08.124Z,27.15
2022-08-25T10:58:05.702Z,27.06
2022-08-25T10:59:05.711Z,27.33
2022-08-25T11:00:05.703Z,27.14
2022-08-25T11:01:05.752Z,27.14
2022-08-25T11:02:05.724Z,27.23
2022-08-25T11:03:05.802Z,27.44
2022-08-25T11:04:05.768Z,25.96
2022-08-25T11:05:05.789Z,24.37
2022-08-25T11:06:05.720Z,25.25
2022-08-25T11:07:05.713Z,26.02
2022-08-25T11:08:05.710Z,26.42
2022-08-25T11:09:05.728Z,26.32
2022-08-25T11:10:05.715Z,26.43
2022-08-25T11:11:05.714Z,26.73
2022-08-25T11:12:05.715Z,26.74
2022-08-25T11:13:05.864Z,26.54
2022-08-25T11:14:09.253Z,26.65
2022-08-25T11:15:05.743Z,26.45
2022-08-25T11:16:17.018Z,26.27
2022-08-25T11:17:05.788Z,25.98
2022-08-25T11:18:05.748Z,25.60
2022-08-25T11:19:05.739Z,25.19
2022-08-25T11:20:05.721Z,24.69
2022-08-25T11:21:05.737Z,24.89
2022-08-25T11:22:05.725Z,24.68
2022-08-25T11:23:05.778Z,25.26
2022-08-25T11:24:05.753Z,25.25
2022-08-25T11:25:05.727Z,24.96
2022-08-25T11:26:05.728Z,24.76
2022-08-25T11:27:05.731Z,25.15
2022-08-25T11:28:05.859Z,25.24
2022-08-25T11:29:05.737Z,25.44
2022-08-25T11:30:06.123Z,25.73
2022-08-25T11:31:05.792Z,24.84
2022-08-25T11:32:05.732Z,24.95
2022-08-25T11:33:05.732Z,24.65
2022-08-25T11:34:05.735Z,24.15
2022-08-25T11:35:05.759Z,24.83
2022-08-25T11:36:05.734Z,24.92
2022-08-25T11:37:05.745Z,25.71
2022-08-25T11:38:05.854Z,25.71
2022-08-25T11:39:05.745Z,25.72
2022-08-25T11:40:05.825Z,25.23
2022-08-25T11:41:11.407Z,25.24
2022-08-25T11:42:05.738Z,25.14
2022-08-25T11:43:08.095Z,25.24
2022-08-25T11:44:05.740Z,24.74
2022-08-25T11:45:05.747Z,24.55
2022-08-25T11:46:05.794Z,24.46
2022-08-25T11:47:05.745Z,24.07
2022-08-25T11:48:05.841Z,23.95
2022-08-25T11:49:05.746Z,24.54
2022-08-25T11:50:05.746Z,24.95
2022-08-25T11:51:05.747Z,24.95
2022-08-25T11:52:05.746Z,24.26
2022-08-25T11:53:05.750Z,24.35
2022-08-25T11:54:05.748Z,23.86
2022-08-25T11:55:05.752Z,24.07
2022-08-25T11:56:05.766Z,24.07
2022-08-25T11:57:05.755Z,24.46
2022-08-25T11:58:05.946Z,24.46
2022-08-25T11:59:05.753Z,24.08
2022-08-25T12:00:05.754Z,23.99
2022-08-25T12:01:05.755Z,24.40
2022-08-25T12:02:05.780Z,24.21
2022-08-25T12:03:05.755Z,23.44
2022-08-25T12:04:05.783Z,23.25
2022-08-25T12:05:05.937Z,22.37
2022-08-25T12:06:05.758Z,21.57
2022-08-25T12:07:05.762Z,21.87
2022-08-25T12:08:06.027Z,22.08
2022-08-25T12:09:05.761Z,22.08
2022-08-25T12:10:05.764Z,22.28
2022-08-25T12:11:10.650Z,22.27
2022-08-25T12:12:05.765Z,22.17
2022-08-25T12:13:10.329Z,21.57
2022-08-25T12:14:05.768Z,21.87
2022-08-25T12:15:05.770Z,22.16
2022-08-25T12:16:05.782Z,22.34
2022-08-25T12:17:05.776Z,22.14
2022-08-25T12:18:08.508Z,22.14
2022-08-25T12:19:05.777Z,22.44
2022-08-25T12:20:05.782Z,22.16
2022-08-25T12:21:05.780Z,22.07
2022-08-25T12:22:05.788Z,22.18
2022-08-25T12:23:05.786Z,22.19
2022-08-25T12:24:05.785Z,21.80
2022-08-25T12:25:05.787Z,21.60
2022-08-25T12:26:05.788Z,21.60
2022-08-25T12:27:06.276Z,21.80
2022-08-25T12:28:09.060Z,21.51
2022-08-25T12:29:07.523Z,21.22
2022-08-25T12:30:05.797Z,21.14
2022-08-25T12:31:05.868Z,20.06
2022-08-25T12:32:05.803Z,20.16
2022-08-25T12:33:05.804Z,20.54
2022-08-25T12:34:05.806Z,20.35
2022-08-25T12:35:05.809Z,20.25
2022-08-25T12:36:05.811Z,20.16
2022-08-25T12:37:06.205Z,20.26
2022-08-25T12:38:06.024Z,19.76
2022-08-25T12:39:05.818Z,19.26
2022-08-25T12:40:05.908Z,19.46
2022-08-25T12:41:05.824Z,19.35
2022-08-25T12:42:05.825Z,19.54
2022-08-25T12:43:06.008Z,19.24
2022-08-25T12:44:05.829Z,19.94
2022-08-25T12:45:05.847Z,19.64
2022-08-25T12:46:05.885Z,19.63
2022-08-25T12:47:05.839Z,20.42
2022-08-25T12:48:05.857Z,20.22
2022-08-25T12:49:05.845Z,20.21
2022-08-25T12:50:05.918Z,20.61
2022-08-25T12:51:05.848Z,20.71
2022-08-25T12:52:05.850Z,20.89
2022-08-25T12:53:06.011Z,21.11
2022-08-25T12:54:08.626Z,20.81
2022-08-25T12:55:05.859Z,20.90
2022-08-25T12:56:05.860Z,20.81
2022-08-25T12:57:05.860Z,20.31
2022-08-25T12:58:05.863Z,20.21
2022-08-25T12:59:05.868Z,20.21
2022-08-25T13:00:05.971Z,20.02
2022-08-25T13:01:07.550Z,19.42
2022-08-25T13:02:07.236Z,19.73
2022-08-25T13:03:06.343Z,19.53